createdAt,value
2022-12-08T00:01:25.785Z,6.43
2022-12-08T00:03:53.119Z,4.03
2022-12-08T00:06:43.181Z,6.75
2022-12-08T00:09:22.082Z,4.25
2022-12-08T00:11:53.653Z,4.75
2022-12-08T00:14:23.587Z,5.00
2022-12-08T00:16:52.090Z,5.65
2022-12-08T00:19:19.011Z,5.05
2022-12-08T00:21:46.150Z,3.78
2022-12-08T00:24:13.185Z,5.40
2022-12-08T00:26:40.055Z,4.65
2022-12-08T00:29:07.268Z,5.05
2022-12-08T00:31:34.282Z,9.32
2022-12-08T00:34:02.673Z,4.60
2022-12-08T00:36:30.762Z,6.63
2022-12-08T00:38:57.666Z,3.78
2022-12-08T00:41:44.910Z,7.43
2022-12-08T00:44:14.056Z,7.70
2022-12-08T00:46:41.523Z,4.20
2022-12-08T00:49:11.474Z,3.95
2022-12-08T00:51:38.573Z,4.15
2022-12-08T00:54:06.116Z,2.72
2022-12-08T00:56:33.860Z,4.78
2022-12-08T00:59:03.154Z,4.70
2022-12-08T01:01:30.059Z,5.10
2022-12-08T01:03:56.963Z,4.65
2022-12-08T01:06:25.568Z,4.60
2022-12-08T01:08:52.657Z,4.93
2022-12-08T01:11:20.067Z,8.13
2022-12-08T01:13:47.241Z,6.80
2022-12-08T01:16:25.789Z,6.55
2022-12-08T01:18:53.267Z,5.15
2022-12-08T01:21:21.331Z,6.78
2022-12-08T01:23:49.921Z,8.18
2022-12-08T01:26:19.105Z,4.05
2022-12-08T01:28:46.741Z,5.63
2022-12-08T01:31:15.415Z,4.15
2022-12-08T01:33:42.915Z,5.10
2022-12-08T01:36:19.379Z,6.88
2022-12-08T01:38:46.484Z,30.80
2022-12-08T01:41:17.230Z,12.88
2022-12-08T01:43:54.529Z,5.57
2022-12-08T01:46:21.560Z,10.23
2022-12-08T01:48:49.663Z,5.82
2022-12-08T01:51:16.880Z,5.72
2022-12-08T01:53:44.143Z,10.43
2022-12-08T01:56:16.123Z,4.20
2022-12-08T01:58:49.776Z,3.95
2022-12-08T02:01:17.301Z,3.38
2022-12-08T02:03:48.209Z,4.82
2022-12-08T02:06:16.597Z,3.88
2022-12-08T02:08:44.193Z,4.20
2022-12-08T02:11:12.408Z,3.05
2022-12-08T02:13:40.603Z,3.58
2022-12-08T02:16:17.880Z,3.80
2022-12-08T02:19:29.870Z,3.13
2022-12-08T02:21:57.245Z,4.03
2022-12-08T02:24:32.898Z,4.40
2022-12-08T02:30:15.339Z,7.85
2022-12-08T02:33:23.771Z,14.50
2022-12-08T02:35:58.307Z,5.63
2022-12-08T02:38:38.939Z,5.57
2022-12-08T02:41:19.025Z,5.35
2022-12-08T02:43:48.613Z,6.90
2022-12-08T02:46:21.308Z,5.57
2022-12-08T02:48:48.620Z,5.00
2022-12-08T02:51:16.934Z,6.97
2022-12-08T02:53:45.109Z,4.15
2022-12-08T02:56:25.962Z,5.80
2022-12-08T02:59:10.522Z,5.03
2022-12-08T03:01:53.901Z,3.22
2022-12-08T03:04:34.653Z,8.57
2022-12-08T03:07:06.991Z,3.70
2022-12-08T03:09:38.700Z,3.88
2022-12-08T03:12:14.058Z,3.83
2022-12-08T03:14:45.956Z,8.52
2022-12-08T03:17:16.066Z,12.40
2022-12-08T03:19:46.008Z,24.60
2022-12-08T03:22:16.681Z,7.93
2022-12-08T03:24:45.827Z,6.10
2022-12-08T03:27:15.688Z,8.43
2022-12-08T03:29:42.854Z,5.45
2022-12-08T03:32:26.704Z,4.07
2022-12-08T03:34:54.480Z,10.00
2022-12-08T03:37:22.980Z,6.70
2022-12-08T03:39:50.153Z,6.70
2022-12-08T03:42:17.089Z,12.30
2022-12-08T03:44:44.131Z,8.82
2022-12-08T03:47:11.027Z,6.43
2022-12-08T03:49:37.847Z,10.98
2022-12-08T03:52:05.928Z,11.80
2022-12-08T03:54:34.571Z,17.60
2022-12-08T03:57:01.448Z,10.75
2022-12-08T03:59:28.243Z,8.65
2022-12-08T04:01:55.108Z,6.97
2022-12-08T04:04:21.930Z,15.13
2022-12-08T04:06:48.878Z,13.13
2022-12-08T04:09:15.747Z,13.05
2022-12-08T04:11:44.098Z,8.43
2022-12-08T04:14:10.954Z,12.10
2022-12-08T04:16:37.888Z,8.98
2022-12-08T04:19:04.842Z,5.07
2022-12-08T04:21:31.559Z,3.40
2022-12-08T04:24:01.253Z,3.03
2022-12-08T04:26:28.892Z,5.25
2022-12-08T04:28:57.143Z,5.80
2022-12-08T04:31:24.187Z,2.80
2022-12-08T04:33:51.000Z,3.05
2022-12-08T04:36:17.926Z,6.10
2022-12-08T04:38:44.785Z,4.65
2022-12-08T04:41:11.797Z,3.85
2022-12-08T04:43:38.611Z,2.38
2022-12-08T04:46:08.802Z,4.70
2022-12-08T04:48:37.930Z,4.22
2022-12-08T04:51:04.987Z,4.03
2022-12-08T04:53:32.402Z,5.05
2022-12-08T04:55:59.375Z,4.82
2022-12-08T04:58:26.215Z,4.47
2022-12-08T05:00:53.158Z,6.32
2022-12-08T05:03:28.329Z,7.45
2022-12-08T05:05:56.068Z,4.82
2022-12-08T05:08:22.932Z,4.03
2022-12-08T05:10:49.793Z,3.30
2022-12-08T05:13:16.713Z,4.63
2022-12-08T05:15:43.547Z,3.83
2022-12-08T05:18:10.483Z,7.80
2022-12-08T05:20:38.759Z,3.63
2022-12-08T05:23:05.487Z,5.53
2022-12-08T05:25:32.266Z,4.18
2022-12-08T05:28:24.796Z,4.00
2022-12-08T05:30:46.512Z,3.78
2022-12-08T05:33:13.361Z,3.85
2022-12-08T05:35:41.729Z,4.30
2022-12-08T05:38:09.476Z,3.83
2022-12-08T05:40:37.899Z,4.28
2022-12-08T05:43:04.907Z,6.72
2022-12-08T05:45:31.744Z,4.25
2022-12-08T05:47:58.597Z,4.55
2022-12-08T05:50:25.427Z,6.82
2022-12-08T05:52:58.301Z,3.13
2022-12-08T05:55:25.051Z,6.38
2022-12-08T05:57:51.771Z,5.10
2022-12-08T06:00:19.723Z,2.95
2022-12-08T06:02:46.960Z,4.63
2022-12-08T06:05:13.878Z,6.97
2022-12-08T06:07:40.695Z,6.90
2022-12-08T06:10:09.973Z,7.80
2022-12-08T06:12:36.747Z,10.70
2022-12-08T06:15:04.360Z,7.47
2022-12-08T06:17:31.324Z,5.75
2022-12-08T06:19:58.112Z,12.10
2022-12-08T06:22:25.325Z,7.70
2022-12-08T06:24:54.254Z,7.20
2022-12-08T06:35:28.635Z,9.50
2022-12-08T06:37:55.505Z,8.88
2022-12-08T06:40:22.286Z,28.52
2022-12-08T06:42:49.113Z,7.53
2022-12-08T06:45:17.571Z,81.30
2022-12-08T06:47:44.422Z,12.32
2022-12-08T06:50:12.494Z,12.23
2022-12-08T06:52:51.591Z,9.27
2022-12-08T06:55:57.435Z,5.30
2022-12-08T06:58:14.399Z,6.90
2022-12-08T07:00:42.054Z,8.25
2022-12-08T07:03:09.518Z,8.60
2022-12-08T07:05:37.041Z,4.80
2022-12-08T07:08:07.149Z,11.30
2022-12-08T07:10:35.499Z,8.55
2022-12-08T07:13:02.623Z,6.25
2022-12-08T07:15:29.485Z,7.05
2022-12-08T07:17:59.825Z,5.57
2022-12-08T07:20:27.403Z,5.45
2022-12-08T07:22:54.487Z,6.03
2022-12-08T07:25:22.879Z,10.38
2022-12-08T07:27:51.755Z,17.27
2022-12-08T07:30:19.154Z,46.95
2022-12-08T07:32:46.137Z,10.73
2022-12-08T07:35:13.520Z,17.17
2022-12-08T07:37:40.621Z,7.22
2022-12-08T07:40:09.137Z,9.48
2022-12-08T07:42:37.457Z,3.78
2022-12-08T07:45:05.053Z,10.70
2022-12-08T07:47:31.948Z,5.07
2022-12-08T07:49:58.944Z,6.55
2022-12-08T07:52:25.823Z,4.72
2022-12-08T07:54:52.695Z,4.85
2022-12-08T07:57:19.518Z,5.72
2022-12-08T07:59:47.869Z,5.25
2022-12-08T08:02:26.281Z,7.47
2022-12-08T08:04:53.611Z,4.43
2022-12-08T08:07:20.622Z,24.38
2022-12-08T08:09:47.409Z,5.18
2022-12-08T08:12:30.768Z,6.45
2022-12-08T08:15:00.432Z,5.60
2022-12-08T08:17:28.334Z,9.50
2022-12-08T08:19:55.580Z,13.57
2022-12-08T08:22:22.870Z,6.68
2022-12-08T08:24:50.597Z,7.13
2022-12-08T08:27:17.485Z,7.90
2022-12-08T08:29:44.380Z,8.05
2022-12-08T08:32:12.522Z,10.25
2022-12-08T08:34:39.332Z,6.95
2022-12-08T08:37:06.163Z,74.53
2022-12-08T08:39:33.045Z,4.43
2022-12-08T08:41:59.895Z,6.45
2022-12-08T08:44:26.678Z,8.05
2022-12-08T08:46:53.521Z,6.28
2022-12-08T08:49:21.788Z,6.63
2022-12-08T08:51:48.866Z,4.35
2022-12-08T08:54:15.799Z,4.80
2022-12-08T08:56:42.570Z,5.45
2022-12-08T08:59:09.821Z,6.15
2022-12-08T09:01:36.937Z,3.10
2022-12-08T09:04:03.892Z,4.55
2022-12-08T09:06:32.309Z,10.15
2022-12-08T09:08:59.558Z,5.53
2022-12-08T09:11:26.368Z,11.20
2022-12-08T09:13:54.113Z,7.72
2022-12-08T09:16:21.830Z,5.85
2022-12-08T09:18:49.695Z,9.40
2022-12-08T09:21:22.610Z,8.75
2022-12-08T09:23:52.772Z,4.25
2022-12-08T09:26:22.495Z,3.53
2022-12-08T09:28:50.232Z,8.45
2022-12-08T09:31:18.123Z,7.40
2022-12-08T09:33:45.346Z,5.47
2022-12-08T09:36:12.212Z,4.55
2022-12-08T09:38:39.634Z,7.78
2022-12-08T09:41:16.764Z,5.55
2022-12-08T09:43:55.732Z,9.90
2022-12-08T09:46:23.391Z,10.70
2022-12-08T09:48:56.079Z,6.60
2022-12-08T09:51:25.478Z,3.42
2022-12-08T09:53:56.388Z,8.05
2022-12-08T09:56:30.142Z,4.65
2022-12-08T09:59:00.231Z,3.80
2022-12-08T10:01:29.990Z,6.45
2022-12-08T10:03:57.704Z,6.00
2022-12-08T10:06:30.783Z,2.97
2022-12-08T10:09:12.786Z,5.25
2022-12-08T10:11:51.909Z,9.13
2022-12-08T10:14:31.370Z,10.93
2022-12-08T10:17:04.082Z,4.72
2022-12-08T10:19:33.873Z,5.30
2022-12-08T10:22:02.229Z,8.00
2022-12-08T10:24:37.519Z,3.63
2022-12-08T10:27:10.128Z,6.97
2022-12-08T10:29:36.987Z,5.45
2022-12-08T10:32:14.302Z,5.00
2022-12-08T10:35:01.739Z,5.05
2022-12-08T10:37:28.692Z,5.30
2022-12-08T10:40:06.229Z,7.68
2022-12-08T10:42:38.221Z,7.80
2022-12-08T10:45:20.373Z,7.47
2022-12-08T10:48:00.079Z,4.38
2022-12-08T10:50:33.362Z,3.67
2022-12-08T10:53:02.575Z,3.10
2022-12-08T10:55:44.958Z,5.53
2022-12-08T10:58:30.513Z,3.97
2022-12-08T11:01:04.046Z,7.50
2022-12-08T11:03:37.232Z,4.80
2022-12-08T11:06:15.292Z,7.07
2022-12-08T11:08:54.377Z,3.78
2022-12-08T11:11:29.257Z,3.70
2022-12-08T11:13:59.142Z,3.10
2022-12-08T11:16:27.683Z,4.18
2022-12-08T11:18:59.128Z,3.60
2022-12-08T11:21:44.613Z,6.35
2022-12-08T11:24:32.293Z,5.22
2022-12-08T11:29:50.840Z,4.65
2022-12-08T11:35:07.655Z,6.32
2022-12-08T11:43:25.833Z,5.03
2022-12-08T11:46:00.475Z,6.53
2022-12-08T11:48:33.702Z,3.15
2022-12-08T11:51:09.667Z,5.05
2022-12-08T11:53:44.818Z,6.35
2022-12-08T11:56:20.103Z,3.92
2022-12-08T11:58:51.711Z,3.25
2022-12-08T12:01:24.022Z,3.72
2022-12-08T12:04:10.802Z,3.22
2022-12-08T12:09:37.819Z,3.60
2022-12-08T12:12:17.021Z,5.80
2022-12-08T12:15:22.648Z,4.72
2022-12-08T12:17:53.431Z,7.82
2022-12-08T12:20:24.307Z,10.88
2022-12-08T12:22:57.264Z,6.45
2022-12-08T12:25:34.808Z,4.00
2022-12-08T12:28:07.210Z,3.55
2022-12-08T12:31:06.701Z,5.15
2022-12-08T12:33:42.466Z,7.07
2022-12-08T13:40:10.379Z,6.53
2022-12-08T13:42:44.335Z,9.20
2022-12-08T13:45:24.510Z,6.97
2022-12-08T13:52:59.812Z,5.40
2022-12-08T13:54:48.788Z,4.32
2022-12-08T13:57:11.242Z,7.22
2022-12-08T13:59:36.323Z,5.40
2022-12-08T14:02:16.492Z,7.85
2022-12-08T14:05:16.830Z,7.15
2022-12-08T14:07:34.135Z,4.10
2022-12-08T14:10:03.756Z,6.03
2022-12-08T14:12:32.959Z,6.38
2022-12-08T14:15:04.341Z,5.63
2022-12-08T14:17:32.024Z,5.70
2022-12-08T14:20:01.563Z,6.15
2022-12-08T14:22:34.560Z,9.88
2022-12-08T14:25:05.119Z,9.13
2022-12-08T14:27:35.060Z,6.65
2022-12-08T14:30:03.828Z,11.18
2022-12-08T14:32:34.306Z,12.57
2022-12-08T14:35:11.398Z,12.48
2022-12-08T14:37:42.397Z,8.43
2022-12-08T14:40:23.558Z,8.15
2022-12-08T14:45:19.733Z,7.53
2022-12-08T14:47:48.590Z,9.95
2022-12-08T14:50:39.561Z,12.45
2022-12-08T14:53:13.344Z,8.73
2022-12-08T14:55:43.864Z,7.32
2022-12-08T14:58:18.700Z,13.68
2022-12-08T15:00:47.938Z,8.45
2022-12-08T15:03:17.108Z,14.27
2022-12-08T15:05:44.628Z,9.05
2022-12-08T15:08:14.908Z,6.50
2022-12-08T15:10:48.226Z,12.05
2022-12-08T15:13:22.918Z,8.15
2022-12-08T15:15:52.325Z,9.60
2022-12-08T15:18:21.903Z,8.15
2022-12-08T15:20:51.808Z,91.15
2022-12-08T15:23:26.199Z,9.35
2022-12-08T15:25:55.572Z,8.73
2022-12-08T15:28:29.441Z,8.43
2022-12-08T15:30:59.197Z,6.53
2022-12-08T15:33:26.691Z,10.15
2022-12-08T15:35:53.738Z,7.25
2022-12-08T15:38:23.035Z,11.20
2022-12-08T15:40:50.493Z,6.28
2022-12-08T15:43:18.796Z,6.90
2022-12-08T15:45:57.880Z,7.95
2022-12-08T15:48:27.794Z,10.80
2022-12-08T15:50:56.185Z,9.05
2022-12-08T15:53:23.298Z,7.65
2022-12-08T15:56:18.898Z,11.50
2022-12-08T15:58:56.026Z,8.82
2022-12-08T16:01:24.230Z,10.15
2022-12-08T16:09:31.394Z,7.43
2022-12-08T16:12:17.092Z,12.82
2022-12-08T16:17:33.549Z,7.72
2022-12-08T16:20:00.994Z,7.15
2022-12-08T16:22:54.564Z,10.27
2022-12-08T16:25:20.021Z,12.18
2022-12-08T16:30:37.402Z,9.63
2022-12-08T16:33:04.674Z,12.13
2022-12-08T16:35:31.831Z,9.50
2022-12-08T16:37:59.350Z,14.20
2022-12-08T16:40:26.292Z,20.35
2022-12-08T16:42:53.607Z,13.50
2022-12-08T16:45:22.489Z,14.77
2022-12-08T16:47:52.314Z,16.05
2022-12-08T16:55:15.057Z,7.78
2022-12-08T16:57:42.236Z,13.20
2022-12-08T17:00:11.680Z,13.50
2022-12-08T17:02:38.745Z,9.90
2022-12-08T17:05:07.838Z,11.52
2022-12-08T17:07:35.715Z,10.38
2022-12-08T17:10:04.993Z,10.32
2022-12-08T17:12:32.046Z,13.18
2022-12-08T17:14:58.937Z,13.13
2022-12-08T17:17:25.773Z,20.15
2022-12-08T17:19:52.917Z,26.13
2022-12-08T17:22:21.196Z,29.13
2022-12-08T17:24:48.209Z,22.60
2022-12-08T17:27:15.206Z,17.08
2022-12-08T17:29:42.090Z,14.13
2022-12-08T17:32:08.995Z,16.98
2022-12-08T17:34:35.894Z,12.98
2022-12-08T17:37:02.849Z,13.43
2022-12-08T17:39:31.179Z,24.15
2022-12-08T17:41:58.050Z,12.38
2022-12-08T17:44:25.172Z,14.00
2022-12-08T17:46:56.853Z,151.52
2022-12-08T17:49:27.235Z,17.25
2022-12-08T17:54:39.270Z,18.15
2022-12-08T17:57:06.544Z,22.48
2022-12-08T17:59:33.974Z,46.67
2022-12-08T18:02:01.744Z,28.00
2022-12-08T18:04:29.455Z,29.33
2022-12-08T18:06:59.390Z,25.33
2022-12-08T18:09:26.412Z,20.33
2022-12-08T18:11:54.753Z,19.70
2022-12-08T18:14:21.960Z,18.88
2022-12-08T18:16:49.242Z,27.83
2022-12-08T18:19:16.377Z,18.48
2022-12-08T18:21:44.003Z,19.15
2022-12-08T18:24:16.918Z,18.42
2022-12-08T18:26:43.756Z,19.77
2022-12-08T18:29:12.111Z,38.65
2022-12-08T18:31:38.967Z,64.40
2022-12-08T18:34:05.800Z,47.30
2022-12-08T18:36:32.905Z,57.05
2022-12-08T18:39:00.100Z,35.55
2022-12-08T18:41:27.100Z,32.83
2022-12-08T18:43:55.518Z,74.45
2022-12-08T18:46:26.812Z,36.05
2022-12-08T18:48:53.622Z,31.08
2022-12-08T18:51:22.805Z,33.97
2022-12-08T18:53:50.791Z,39.92
2022-12-08T18:56:22.304Z,20.73
2022-12-08T18:58:49.255Z,29.02
2022-12-08T19:02:04.658Z,18.73
2022-12-08T19:05:01.444Z,39.58
2022-12-08T19:07:30.578Z,22.02
2022-12-08T19:09:59.340Z,26.25
2022-12-08T19:12:26.966Z,26.83
2022-12-08T19:14:54.062Z,31.88
2022-12-08T19:29:20.312Z,17.77
2022-12-08T19:31:47.299Z,15.65
2022-12-08T19:34:14.821Z,15.82
2022-12-08T19:36:43.207Z,18.75
2022-12-08T19:39:33.846Z,17.25
2022-12-08T19:42:19.489Z,17.08
2022-12-08T19:44:54.279Z,16.95
2022-12-08T19:47:22.727Z,20.88
2022-12-08T19:49:50.022Z,28.52
2022-12-08T19:52:17.372Z,26.17
2022-12-08T19:54:44.539Z,26.15
2022-12-08T19:57:11.817Z,30.30
2022-12-08T19:59:39.100Z,28.05
2022-12-08T20:02:08.149Z,29.77
2022-12-08T20:04:35.355Z,36.53
2022-12-08T20:07:02.552Z,27.48
2022-12-08T20:09:30.523Z,34.63
2022-12-08T20:11:58.736Z,34.30
2022-12-08T20:14:26.486Z,29.85
2022-12-08T20:16:53.630Z,26.85
2022-12-08T20:19:22.371Z,27.88
2022-12-08T20:21:49.344Z,57.72
2022-12-08T20:24:16.776Z,73.30
2022-12-08T20:26:43.595Z,75.47
2022-12-08T20:29:10.902Z,70.40
2022-12-08T20:31:38.545Z,53.83
2022-12-08T20:34:05.719Z,32.15
2022-12-08T20:36:34.304Z,49.03
2022-12-08T20:39:01.263Z,85.47
2022-12-08T20:41:28.231Z,52.75
2022-12-08T20:43:55.170Z,52.38
2022-12-08T20:46:22.375Z,52.35
2022-12-08T20:48:49.449Z,36.92
2022-12-08T20:51:18.483Z,52.28
2022-12-08T20:53:47.874Z,45.40
2022-12-08T20:56:16.421Z,51.40
2022-12-08T20:58:43.506Z,37.63
2022-12-08T21:01:12.294Z,45.95
2022-12-08T21:03:40.396Z,51.22
2022-12-08T21:06:07.965Z,43.13
2022-12-08T21:08:35.501Z,52.72
2022-12-08T21:11:04.795Z,55.03
2022-12-08T21:13:32.073Z,54.65
2022-12-08T21:15:59.310Z,56.03
2022-12-08T21:18:26.390Z,48.60
2022-12-08T21:20:53.521Z,47.67
2022-12-08T21:23:20.474Z,55.38
2022-12-08T21:25:47.654Z,53.67
2022-12-08T21:28:15.975Z,60.47
2022-12-08T21:30:43.530Z,53.05
2022-12-08T21:33:10.586Z,53.05
2022-12-08T21:35:37.663Z,59.72
2022-12-08T21:38:05.546Z,53.97
2022-12-08T21:40:32.680Z,52.65
2022-12-08T21:42:59.650Z,68.53
2022-12-08T21:45:28.328Z,73.78
2022-12-08T21:47:55.484Z,74.78
2022-12-08T21:50:22.482Z,63.17
2022-12-08T21:52:50.334Z,62.38
2022-12-08T21:55:19.245Z,62.58
2022-12-08T21:57:46.333Z,55.15
2022-12-08T22:00:15.803Z,55.90
2022-12-08T22:02:45.022Z,55.63
2022-12-08T22:05:13.391Z,59.35
2022-12-08T22:07:41.252Z,51.72
2022-12-08T22:10:10.572Z,51.10
2022-12-08T22:12:38.537Z,43.08
2022-12-08T22:15:07.281Z,44.75
2022-12-08T22:17:37.551Z,37.20
2022-12-08T22:20:09.422Z,26.88
2022-12-08T22:22:37.320Z,43.45
2022-12-08T22:25:06.120Z,47.40
2022-12-08T22:27:33.831Z,39.53
2022-12-08T22:30:00.759Z,35.20
2022-12-08T22:32:27.730Z,30.55
2022-12-08T22:34:54.903Z,34.22
2022-12-08T22:37:23.275Z,32.47
2022-12-08T22:39:50.179Z,32.83
2022-12-08T22:42:17.146Z,33.35
2022-12-08T22:44:44.048Z,25.95
2022-12-08T22:47:11.063Z,34.30
2022-12-08T22:49:37.952Z,25.05
2022-12-08T22:52:05.247Z,24.23
2022-12-08T22:54:33.788Z,23.50
2022-12-08T22:57:00.580Z,23.65
2022-12-08T22:59:33.751Z,22.15
2022-12-08T23:02:03.219Z,23.20
2022-12-08T23:04:30.473Z,20.65
2022-12-08T23:06:57.605Z,23.13
2022-12-08T23:09:24.788Z,21.63
2022-12-08T23:11:53.608Z,20.90
2022-12-08T23:14:20.791Z,20.42
2022-12-08T23:16:47.979Z,17.60
2022-12-08T23:19:14.859Z,21.25
2022-12-08T23:21:41.724Z,17.10
2022-12-08T23:24:08.620Z,18.02
2022-12-08T23:26:35.918Z,16.92
2022-12-08T23:29:04.613Z,21.60
2022-12-08T23:31:32.355Z,21.55
2022-12-08T23:34:00.055Z,16.77
2022-12-08T23:36:27.001Z,18.02
2022-12-08T23:38:54.357Z,18.63
2022-12-08T23:41:22.042Z,17.00
2022-12-08T23:43:50.761Z,19.55
2022-12-08T23:46:21.878Z,21.85
2022-12-08T23:48:49.656Z,20.00
2022-12-08T23:51:16.908Z,19.27
2022-12-08T23:53:44.519Z,19.52
2022-12-08T23:56:13.519Z,18.20
2022-12-08T23:58:41.687Z,22.92
